Time;durP1;ratioP1;P1;durP2;ratioP2;P2;SDS_P1;SDS_P2;PMS_P1;PMS_P2;Temp;Humidity;BMP_temperature;BMP_pressure;BME280_temperature;BME280_humidity;BME280_pressure;Samples;Min_cycle;Max_cycle;Signal;HPM_P1;HPM_P2
2023/01/24 00:01:25;;;;;;;48.80;28.80;;;;;;;1.50;83.99;98820.95;108864;1251;99801;-75
2023/01/24 00:03:53;;;;;;;51.50;30.00;;;;;;;1.50;83.99;98822.48;108820;1251;95570;-75
2023/01/24 00:06:22;;;;;;;51.30;29.90;;;;;;;1.52;84.06;98821.13;108843;1251;96051;-75
2023/01/24 00:08:50;;;;;;;63.00;33.30;;;;;;;1.52;84.12;98823.09;108896;1251;103452;-75
2023/01/24 00:11:18;;;;;;;62.30;33.80;;;;;;;1.48;83.99;98817.48;108871;1251;110085;-75
2023/01/24 00:13:46;;;;;;;66.30;33.50;;;;;;;1.48;83.98;98813.47;108542;1253;99905;-75
2023/01/24 00:16:18;;;;;;;67.00;33.30;;;;;;;1.48;84.00;98814.90;108781;1251;95569;-75
2023/01/24 00:18:47;;;;;;;57.00;31.00;;;;;;;1.48;84.16;98815.74;108640;1251;95642;-75
2023/01/24 00:21:18;;;;;;;52.30;28.70;;;;;;;1.48;84.19;98815.06;108878;1251;103700;-75
2023/01/24 00:23:49;;;;;;;52.80;29.70;;;;;;;1.49;84.15;98819.42;108888;1251;101524;-75
2023/01/24 00:26:18;;;;;;;49.30;29.40;;;;;;;1.49;84.16;98818.00;108841;1251;99984;-75
2023/01/24 00:28:47;;;;;;;48.10;28.80;;;;;;;1.49;84.13;98816.73;108854;1251;95617;-75
2023/01/24 00:31:16;;;;;;;48.90;29.80;;;;;;;1.51;84.00;98818.34;108832;1251;95774;-75
2023/01/24 00:33:44;;;;;;;53.80;28.90;;;;;;;1.53;84.15;98820.89;108583;1253;103939;-75
2023/01/24 00:36:13;;;;;;;55.10;30.30;;;;;;;1.54;84.08;98822.73;108540;1251;101309;-75
2023/01/24 00:38:41;;;;;;;50.30;28.90;;;;;;;1.56;84.10;98823.09;108834;1251;99971;-74
2023/01/24 00:41:09;;;;;;;47.50;27.60;;;;;;;1.58;84.03;98822.39;108546;1251;95683;-75
2023/01/24 00:43:37;;;;;;;48.70;27.30;;;;;;;1.59;83.98;98821.95;108867;1251;96175;-75
2023/01/24 00:46:07;;;;;;;49.40;27.50;;;;;;;1.60;84.01;98823.86;108686;1251;215009;-75
2023/01/24 00:48:35;;;;;;;46.80;27.10;;;;;;;1.61;84.01;98826.20;108683;1251;101362;-75
2023/01/24 00:51:04;;;;;;;51.90;28.50;;;;;;;1.62;84.04;98826.14;108553;1251;98934;-75
2023/01/24 00:53:32;;;;;;;44.00;26.90;;;;;;;1.61;83.91;98827.48;108596;1252;95650;-75
2023/01/24 00:56:00;;;;;;;49.20;27.30;;;;;;;1.56;83.96;98832.13;108522;1251;96038;-75
2023/01/24 00:58:28;;;;;;;53.60;28.90;;;;;;;1.53;84.00;98830.64;108851;1250;103022;-75
2023/01/24 01:01:00;;;;;;;53.30;30.90;;;;;;;1.50;84.17;98827.97;108838;1251;109969;-75
2023/01/24 01:03:28;;;;;;;52.70;31.40;;;;;;;1.49;84.22;98827.70;108758;1254;99834;-75
2023/01/24 01:06:01;;;;;;;52.90;32.30;;;;;;;1.51;84.24;98830.10;108747;1252;95585;-75
2023/01/24 01:08:30;;;;;;;59.80;32.60;;;;;;;1.50;84.22;98830.52;108585;1251;96014;-75
2023/01/24 01:10:58;;;;;;;55.50;32.00;;;;;;;1.50;84.21;98830.83;108831;1253;103214;-75
2023/01/24 01:13:27;;;;;;;48.90;28.00;;;;;;;1.52;84.18;98831.22;108838;1251;100403;-75
2023/01/24 01:16:22;;;;;;;49.00;26.20;;;;;;;1.54;84.26;98829.84;108821;1251;99881;-75
2023/01/24 01:18:54;;;;;;;43.90;26.00;;;;;;;1.54;84.19;98833.59;108282;1256;95756;-75
2023/01/24 01:21:23;;;;;;;43.50;26.30;;;;;;;1.54;84.32;98829.84;108317;1257;95716;-75
2023/01/24 01:23:51;;;;;;;41.60;25.10;;;;;;;1.55;84.31;98829.98;108229;1256;103614;-75
2023/01/24 01:26:22;;;;;;;43.20;25.80;;;;;;;1.54;84.33;98833.93;108334;1256;101396;-74
2023/01/24 01:28:51;;;;;;;29.10;17.80;;;;;;;1.53;84.27;98832.74;108206;1256;99925;-74
2023/01/24 01:31:20;;;;;;;37.20;23.60;;;;;;;1.54;84.32;98834.25;108261;1256;95799;-74
2023/01/24 01:33:49;;;;;;;42.90;23.90;;;;;;;1.56;84.33;98839.09;108308;1256;96157;-74
2023/01/24 01:36:17;;;;;;;42.10;24.30;;;;;;;1.56;84.36;98838.20;108298;1256;102200;-74
2023/01/24 01:38:45;;;;;;;40.10;25.20;;;;;;;1.56;84.35;98839.77;108319;1261;101629;-75
2023/01/24 01:41:14;;;;;;;41.80;24.30;;;;;;;1.55;84.32;98839.31;108314;1256;98667;-75
2023/01/24 01:44:37;;;;;;;40.90;25.00;;;;;;;1.55;84.25;98837.57;108292;1256;95667;-75
2023/01/24 01:46:41;;;;;;;39.10;24.30;;;;;;;1.55;84.29;98837.57;108348;1256;96088;-74
2023/01/24 01:49:18;;;;;;;41.70;24.40;;;;;;;1.55;84.38;98837.18;108322;1256;103665;-74
2023/01/24 01:51:53;;;;;;;34.40;22.40;;;;;;;1.56;84.35;98838.54;108351;1256;101210;-74
2023/01/24 01:54:29;;;;;;;32.10;20.10;;;;;;;1.56;84.29;98836.91;108287;1257;99154;-76
2023/01/24 01:57:04;;;;;;;34.90;21.20;;;;;;;1.57;84.19;98834.20;108419;1254;95897;-75
2023/01/24 01:59:38;;;;;;;36.00;22.10;;;;;;;1.58;84.30;98830.77;108378;1254;96655;-74
2023/01/24 02:02:09;;;;;;;34.00;21.50;;;;;;;1.59;84.24;98827.12;108844;1251;103239;-75
2023/01/24 02:04:42;;;;;;;34.20;21.50;;;;;;;1.60;84.30;98830.95;108844;1251;100852;-76
2023/01/24 02:07:10;;;;;;;34.40;20.50;;;;;;;1.59;84.25;98829.45;108789;1251;100129;-76
2023/01/24 02:09:43;;;;;;;35.60;20.20;;;;;;;1.58;84.17;98836.09;108833;1255;95505;-75
2023/01/24 02:12:25;;;;;;;37.20;21.70;;;;;;;1.58;84.19;98837.81;108773;1251;96316;-75
2023/01/24 02:17:47;;;;;;;33.30;19.50;;;;;;;1.56;84.24;98841.91;108874;1251;102914;-76
2023/01/24 02:20:33;;;;;;;34.00;21.20;;;;;;;1.55;84.18;98839.86;108454;1254;101109;-75
2023/01/24 02:23:20;;;;;;;36.80;20.00;;;;;;;1.54;84.27;98840.81;108750;1251;95608;-75
2023/01/24 02:26:08;;;;;;;30.10;19.20;;;;;;;1.55;84.23;98837.05;108822;1251;96294;-75
2023/01/24 02:28:37;;;;;;;35.70;21.00;;;;;;;1.55;84.11;98842.52;108868;1251;103529;-75
2023/01/24 02:31:05;;;;;;;37.10;22.80;;;;;;;1.54;84.25;98839.58;108840;1255;101235;-75
2023/01/24 02:33:34;;;;;;;34.10;21.40;;;;;;;1.53;84.26;98837.54;108534;1256;99404;-76
2023/01/24 02:36:25;;;;;;;32.00;19.50;;;;;;;1.52;84.26;98835.86;108496;1254;95637;-75
2023/01/24 02:39:10;;;;;;;33.90;20.20;;;;;;;1.48;84.30;98838.30;108635;1253;96051;-76
2023/01/24 02:41:54;;;;;;;30.60;18.70;;;;;;;1.47;84.25;98841.05;108792;1250;103563;-76
2023/01/24 02:44:35;;;;;;;31.30;18.30;;;;;;;1.46;84.14;98838.43;108855;1255;101725;-75
2023/01/24 02:47:04;;;;;;;28.90;19.00;;;;;;;1.46;84.13;98833.30;108835;1251;99034;-76
2023/01/24 02:49:32;;;;;;;30.80;19.10;;;;;;;1.47;84.25;98837.32;108797;1251;95842;-76
2023/01/24 02:54:46;;;;;;;33.20;20.00;;;;;;;1.49;84.30;98837.11;108876;1253;103596;-75
2023/01/24 02:59:59;;;;;;;32.60;19.10;;;;;;;1.49;84.12;98842.44;108823;1251;99996;-76
2023/01/24 03:02:27;;;;;;;38.10;20.80;;;;;;;1.49;84.10;98842.63;108910;1251;95532;-75
2023/01/24 03:04:55;;;;;;;37.30;22.30;;;;;;;1.47;84.05;98841.33;108867;1251;97026;-75
2023/01/24 03:07:23;;;;;;;39.40;23.30;;;;;;;1.50;84.03;98846.33;108843;1251;102160;-75
2023/01/24 03:09:51;;;;;;;27.50;17.80;;;;;;;1.51;84.14;98847.11;108856;1251;100797;-75
2023/01/24 03:34:32;;;;;;;30.50;17.00;;;;;;;1.52;84.00;98848.59;108404;1251;102841;-75
2023/01/24 03:37:01;;;;;;;29.50;16.80;;;;;;;1.52;83.98;98850.02;108845;1251;101908;-74
2023/01/24 03:42:14;;;;;;;25.20;16.90;;;;;;;1.51;83.99;98847.28;108450;1254;95638;-75
2023/01/24 03:44:42;;;;;;;23.20;16.00;;;;;;;1.50;84.02;98844.71;108811;1251;96022;-75
2023/01/24 03:47:11;;;;;;;25.80;16.50;;;;;;;1.47;84.01;98847.41;108823;1251;103235;-77
2023/01/24 03:52:30;;;;;;;21.90;13.10;;;;;;;1.48;84.05;98853.34;108815;1251;100103;-77
2023/01/24 03:55:00;;;;;;;24.20;13.60;;;;;;;1.50;84.04;98860.81;108867;1251;95615;-77
2023/01/24 03:57:31;;;;;;;22.50;14.00;;;;;;;1.50;84.00;98859.76;108862;1251;96072;-77
2023/01/24 03:59:59;;;;;;;21.10;14.00;;;;;;;1.49;84.10;98859.48;108856;1251;101997;-78
2023/01/24 04:02:27;;;;;;;22.90;14.30;;;;;;;1.48;84.05;98858.17;108846;1251;101635;-76
2023/01/24 04:05:14;;;;;;;21.60;14.30;;;;;;;1.48;84.11;98857.11;108809;1251;100002;-76
2023/01/24 04:07:43;;;;;;;21.50;14.90;;;;;;;1.47;84.09;98860.91;108696;1251;96490;-76
2023/01/24 04:10:13;;;;;;;23.20;15.20;;;;;;;1.47;84.21;98858.92;108835;1251;97257;-75
2023/01/24 04:12:42;;;;;;;24.30;14.10;;;;;;;1.47;84.08;98856.23;108803;1251;113012;-76
2023/01/24 04:15:18;;;;;;;20.80;13.10;;;;;;;1.48;84.15;98859.23;108915;1251;101597;-77
2023/01/24 04:17:47;;;;;;;18.80;13.00;;;;;;;1.49;84.10;98856.97;108790;1254;100266;-78
2023/01/24 04:20:15;;;;;;;20.50;12.70;;;;;;;1.50;84.18;98857.65;108772;1251;95511;-77
2023/01/24 04:22:44;;;;;;;24.40;13.40;;;;;;;1.48;84.10;98855.84;108536;1251;95698;-78
2023/01/24 04:25:12;;;;;;;32.20;17.40;;;;;;;1.49;84.15;98856.31;108869;1251;102596;-77
2023/01/24 04:27:40;;;;;;;29.70;15.40;;;;;;;1.50;84.08;98857.44;108833;1251;110182;-77
2023/01/24 04:30:11;;;;;;;30.80;16.90;;;;;;;1.50;83.99;98860.27;108704;1251;99781;-77
2023/01/24 04:32:39;;;;;;;33.50;16.80;;;;;;;1.51;84.11;98859.33;108784;1251;95871;-77
2023/01/24 04:35:08;;;;;;;31.20;16.90;;;;;;;1.52;84.13;98858.75;108780;1251;95975;-77
2023/01/24 04:37:36;;;;;;;32.30;17.00;;;;;;;1.52;84.08;98857.71;108818;1251;103475;-77
2023/01/24 04:40:04;;;;;;;33.70;17.90;;;;;;;1.50;84.12;98856.02;108797;1255;101196;-77
2023/01/24 04:42:32;;;;;;;30.70;17.30;;;;;;;1.50;84.09;98859.45;108845;1251;98526;-78
2023/01/24 04:45:00;;;;;;;27.60;16.50;;;;;;;1.50;84.12;98859.93;108733;1251;95560;-79
2023/01/24 04:47:28;;;;;;;25.10;15.50;;;;;;;1.51;84.06;98859.55;108881;1251;96060;-79
2023/01/24 04:49:57;;;;;;;29.50;15.00;;;;;;;1.50;84.18;98860.63;108824;1251;103417;-78
2023/01/24 04:52:25;;;;;;;27.10;15.20;;;;;;;1.51;84.14;98860.08;108618;1251;101480;-77
2023/01/24 04:54:53;;;;;;;27.60;15.60;;;;;;;1.49;84.19;98856.83;108833;1251;99958;-78
2023/01/24 04:57:21;;;;;;;26.40;15.50;;;;;;;1.47;84.07;98855.90;108772;1251;95878;-78
2023/01/24 04:59:49;;;;;;;30.90;16.00;;;;;;;1.46;84.25;98856.52;108865;1251;96001;-78
2023/01/24 05:02:17;;;;;;;24.00;14.20;;;;;;;1.45;84.23;98856.80;108881;1251;103451;-78
2023/01/24 05:04:46;;;;;;;26.20;15.20;;;;;;;1.45;84.24;98856.94;108825;1251;101275;-76
2023/01/24 05:07:14;;;;;;;27.80;15.70;;;;;;;1.45;84.25;98858.16;108814;1251;99417;-77
2023/01/24 05:09:42;;;;;;;30.30;16.90;;;;;;;1.45;84.25;98854.42;108790;1251;95597;-77
2023/01/24 05:12:10;;;;;;;28.60;16.20;;;;;;;1.45;84.30;98854.27;108783;1251;96046;-79
2023/01/24 05:14:38;;;;;;;23.50;14.90;;;;;;;1.45;84.26;98851.48;108791;1251;103806;-77
2023/01/24 05:17:06;;;;;;;31.20;16.60;;;;;;;1.43;84.27;98853.95;108572;1251;100368;-78
2023/01/24 05:19:34;;;;;;;29.50;16.40;;;;;;;1.42;84.37;98853.83;108797;1251;99680;-76
2023/01/24 05:22:02;;;;;;;28.20;17.10;;;;;;;1.42;84.30;98855.45;108825;1251;95888;-77
2023/01/24 05:24:30;;;;;;;30.70;18.30;;;;;;;1.40;84.35;98853.27;108841;1251;95760;-77
2023/01/24 05:26:58;;;;;;;30.70;18.50;;;;;;;1.39;84.37;98856.75;108606;1253;111593;-76
2023/01/24 05:29:26;;;;;;;34.60;18.30;;;;;;;1.39;84.43;98854.98;108842;1251;101490;-76
2023/01/24 05:31:54;;;;;;;33.80;19.30;;;;;;;1.38;84.50;98854.13;108834;1251;98708;-76
2023/01/24 05:34:22;;;;;;;35.90;17.60;;;;;;;1.37;84.45;98858.61;108851;1251;95792;-77
2023/01/24 05:36:51;;;;;;;35.60;19.20;;;;;;;1.37;84.45;98860.95;108870;1251;96059;-77
2023/01/24 05:39:19;;;;;;;32.50;18.70;;;;;;;1.37;84.43;98861.99;108861;1251;103623;-77
2023/01/24 05:41:47;;;;;;;23.60;14.30;;;;;;;1.39;84.53;98862.05;108815;1251;101204;-76
2023/01/24 05:44:15;;;;;;;24.50;14.10;;;;;;;1.41;84.58;98861.02;108863;1251;99892;-77
2023/01/24 05:46:43;;;;;;;18.90;12.30;;;;;;;1.42;84.47;98862.50;108812;1251;95572;-77
2023/01/24 05:49:12;;;;;;;24.70;13.40;;;;;;;1.45;84.48;98860.68;108845;1251;96303;-76
2023/01/24 05:51:40;;;;;;;23.40;13.60;;;;;;;1.47;84.51;98860.33;108826;1251;103440;-76
2023/01/24 05:54:08;;;;;;;20.80;12.10;;;;;;;1.50;84.55;98861.69;108860;1251;101063;-78
2023/01/24 05:56:36;;;;;;;22.10;13.80;;;;;;;1.53;84.57;98861.99;108466;1252;100057;-77
2023/01/24 05:59:04;;;;;;;25.30;14.10;;;;;;;1.55;84.57;98863.10;108795;1251;95560;-76
2023/01/24 06:01:32;;;;;;;26.00;14.10;;;;;;;1.57;84.44;98863.80;108831;1251;96287;-78
2023/01/24 06:04:01;;;;;;;23.10;14.10;;;;;;;1.58;84.46;98862.11;108887;1251;103603;-78
2023/01/24 06:06:29;;;;;;;22.10;14.70;;;;;;;1.60;84.47;98865.71;108832;1251;101258;-79
2023/01/24 06:08:57;;;;;;;24.20;16.20;;;;;;;1.60;84.42;98869.06;108855;1251;99927;-77
2023/01/24 06:11:28;;;;;;;23.20;14.50;;;;;;;1.58;84.33;98873.84;108720;1251;95549;-77
2023/01/24 06:13:57;;;;;;;26.10;16.70;;;;;;;1.58;84.44;98877.42;108839;1251;96009;-77
2023/01/24 06:16:26;;;;;;;25.90;17.70;;;;;;;1.55;84.36;98878.89;108822;1251;103778;-77
2023/01/24 06:18:56;;;;;;;24.70;16.30;;;;;;;1.53;84.51;98881.33;108861;1251;100362;-77
2023/01/24 06:21:31;;;;;;;22.30;14.90;;;;;;;1.53;84.65;98883.50;108847;1251;99666;-79
2023/01/24 06:23:59;;;;;;;25.40;15.40;;;;;;;1.53;84.57;98882.92;108817;1251;95693;-77
2023/01/24 06:26:28;;;;;;;28.10;16.40;;;;;;;1.53;84.59;98888.48;108857;1251;96018;-77
2023/01/24 06:28:56;;;;;;;29.30;19.90;;;;;;;1.54;84.56;98893.04;108876;1251;103564;-78
2023/01/24 06:31:49;;;;;;;33.50;19.40;;;;;;;1.57;84.78;98895.23;108547;1252;100394;-78
2023/01/24 06:34:26;;;;;;;;;;;;;;;1.58;84.71;98904.70;108761;1251;99006;-77
2023/01/24 06:37:00;;;;;;;26.30;16.10;;;;;;;1.58;84.66;98906.36;108776;1251;95590;-77
2023/01/24 06:39:28;;;;;;;24.70;15.10;;;;;;;1.59;84.68;98906.63;108869;1251;96549;-77
2023/01/24 06:41:57;;;;;;;22.60;15.10;;;;;;;1.60;84.59;98908.83;108827;1251;103412;-77
2023/01/24 06:44:25;;;;;;;24.80;14.30;;;;;;;1.59;84.57;98912.29;108656;1251;101355;-78
2023/01/24 06:46:53;;;;;;;20.70;13.30;;;;;;;1.59;84.55;98916.86;108855;1251;100041;-78
2023/01/24 06:49:22;;;;;;;22.60;13.80;;;;;;;1.61;84.55;98917.45;108807;1251;95637;-77
2023/01/24 06:51:51;;;;;;;26.80;15.60;;;;;;;1.62;84.55;98922.91;108848;1251;96016;-77
2023/01/24 06:54:20;;;;;;;23.70;16.60;;;;;;;1.62;84.55;98923.56;108518;1251;111726;-77
2023/01/24 06:56:48;;;;;;;30.30;19.80;;;;;;;1.63;84.61;98926.52;108864;1251;100989;-77
2023/01/24 06:59:16;;;;;;;27.80;18.80;;;;;;;1.64;84.63;98926.42;108798;1251;98661;-77
2023/01/24 07:01:44;;;;;;;33.20;19.80;;;;;;;1.66;84.65;98925.44;108855;1251;95658;-76
2023/01/24 07:04:12;;;;;;;29.60;18.10;;;;;;;1.68;84.73;98927.70;108849;1251;96041;-77
2023/01/24 07:06:40;;;;;;;30.80;19.40;;;;;;;1.70;84.73;98929.54;108825;1251;103421;-77
2023/01/24 07:09:08;;;;;;;31.80;18.90;;;;;;;1.72;84.67;98926.71;108871;1251;101283;-76
2023/01/24 07:11:36;;;;;;;33.30;21.30;;;;;;;1.72;84.60;98929.23;108796;1251;99884;-77
2023/01/24 07:14:05;;;;;;;37.50;22.70;;;;;;;1.71;84.59;98928.70;108876;1251;95609;-78
2023/01/24 07:16:33;;;;;;;35.90;23.20;;;;;;;1.73;84.56;98927.69;108860;1251;95995;-76
2023/01/24 07:19:01;;;;;;;34.00;22.60;;;;;;;1.73;84.60;98930.71;108898;1251;103629;-76
2023/01/24 07:21:29;;;;;;;35.40;22.80;;;;;;;1.73;84.54;98928.02;108817;1251;101312;-76
2023/01/24 07:23:59;;;;;;;34.20;23.50;;;;;;;1.73;84.66;98926.30;108861;1251;108605;-78
2023/01/24 07:26:28;;;;;;;33.50;23.50;;;;;;;1.72;84.62;98927.20;108832;1251;95529;-76
2023/01/24 07:28:56;;;;;;;30.90;20.30;;;;;;;1.76;84.69;98926.58;108820;1251;96002;-77
2023/01/24 07:31:24;;;;;;;27.40;19.80;;;;;;;1.79;84.63;98931.98;108878;1251;103378;-76
2023/01/24 07:33:52;;;;;;;30.10;19.60;;;;;;;1.84;84.66;98931.30;108858;1251;100080;-77
2023/01/24 07:36:20;;;;;;;27.00;19.00;;;;;;;1.87;84.68;98935.52;108816;1251;99912;-77
2023/01/24 07:38:48;;;;;;;29.30;19.40;;;;;;;1.89;84.56;98939.23;108841;1251;95661;-77
2023/01/24 07:41:16;;;;;;;30.00;19.70;;;;;;;1.93;84.44;98945.36;108545;1251;96132;-78
2023/01/24 07:43:45;;;;;;;29.50;20.10;;;;;;;1.96;84.48;98947.38;108866;1251;103472;-78
2023/01/24 07:46:13;;;;;;;30.60;20.40;;;;;;;1.99;84.63;98952.09;108825;1251;101595;-76
2023/01/24 07:48:41;;;;;;;28.10;18.90;;;;;;;2.02;84.39;98954.20;108778;1251;99095;-78
2023/01/24 07:51:09;;;;;;;27.90;16.90;;;;;;;2.04;84.32;98956.90;108835;1251;95622;-78
2023/01/24 07:53:37;;;;;;;22.70;15.40;;;;;;;2.06;84.34;98953.13;108892;1251;96032;-78
2023/01/24 07:56:06;;;;;;;23.00;15.30;;;;;;;2.09;84.28;98952.02;108877;1251;103320;-78
2023/01/24 07:58:34;;;;;;;24.00;15.10;;;;;;;2.12;84.34;98948.08;108630;1252;100658;-77
2023/01/24 08:01:02;;;;;;;22.70;14.40;;;;;;;2.15;84.23;98947.10;108450;1252;98830;-78
2023/01/24 08:03:30;;;;;;;19.60;12.00;;;;;;;2.19;84.14;98945.58;108799;1251;95567;-77
2023/01/24 08:05:59;;;;;;;22.30;11.30;;;;;;;2.21;84.11;98947.54;108579;1251;96085;-77
2023/01/24 08:08:27;;;;;;;23.80;12.70;;;;;;;2.23;84.03;98945.77;108885;1251;103850;-77
2023/01/24 08:10:55;;;;;;;20.80;12.90;;;;;;;2.25;84.00;98946.14;108878;1251;101318;-77
2023/01/24 08:13:23;;;;;;;20.30;12.60;;;;;;;2.28;83.89;98946.98;108537;1253;108146;-78
2023/01/24 08:15:51;;;;;;;22.00;13.90;;;;;;;2.29;83.83;98951.86;108670;1251;95737;-76
2023/01/24 08:18:19;;;;;;;21.50;12.40;;;;;;;2.30;83.68;98952.70;108830;1251;96025;-76
2023/01/24 08:20:48;;;;;;;17.50;11.00;;;;;;;2.31;83.67;98954.19;108862;1251;103599;-79
2023/01/24 08:23:16;;;;;;;20.40;10.70;;;;;;;2.35;83.66;98958.44;108865;1251;101276;-76
2023/01/24 08:25:44;;;;;;;16.70;11.40;;;;;;;2.39;83.74;98960.29;108658;1251;99958;-77
2023/01/24 08:28:13;;;;;;;18.60;11.30;;;;;;;2.41;83.66;98960.84;108514;1256;95596;-77
2023/01/24 08:30:41;;;;;;;16.80;10.60;;;;;;;2.42;83.62;98956.98;108839;1251;96029;-76
2023/01/24 08:33:11;;;;;;;16.50;10.40;;;;;;;2.44;83.47;98960.58;108887;1250;103811;-76
2023/01/24 08:35:39;;;;;;;17.00;10.10;;;;;;;2.45;83.42;98959.80;108899;1251;101459;-76
2023/01/24 08:38:07;;;;;;;22.90;12.20;;;;;;;2.47;83.38;98962.30;108869;1251;100052;-76
2023/01/24 08:40:36;;;;;;;17.50;11.40;;;;;;;2.50;83.28;98968.48;108842;1251;95586;-77
2023/01/24 08:43:04;;;;;;;19.90;12.50;;;;;;;2.51;83.16;98965.54;108761;1252;96009;-79
2023/01/24 08:45:32;;;;;;;27.10;13.40;;;;;;;2.53;83.05;98967.88;108862;1251;103769;-76
2023/01/24 08:48:00;;;;;;;26.30;14.30;;;;;;;2.56;83.20;98969.56;108889;1250;101216;-75
2023/01/24 08:50:29;;;;;;;22.80;13.60;;;;;;;2.58;83.15;98972.66;108875;1251;100203;-77
2023/01/24 08:52:58;;;;;;;22.30;13.10;;;;;;;2.60;83.09;98976.02;108837;1251;95652;-76
2023/01/24 08:55:30;;;;;;;31.10;15.20;;;;;;;2.60;82.99;98975.64;108566;1251;96044;-78
2023/01/24 08:58:02;;;;;;;;;;;;;;;2.60;83.00;98975.49;108464;1257;103352;-75
2023/01/24 09:00:31;;;;;;;37.70;16.60;;;;;;;2.61;82.95;98980.95;108876;1251;101303;-76
2023/01/24 09:03:00;;;;;;;38.80;18.40;;;;;;;2.64;82.88;98985.98;108854;1251;100213;-76
2023/01/24 09:05:30;;;;;;;60.90;25.50;;;;;;;2.71;82.97;98991.14;108627;1253;96472;-77
2023/01/24 09:08:00;;;;;;;53.50;23.20;;;;;;;2.79;82.88;98990.48;108866;1251;95575;-75
2023/01/24 09:10:28;;;;;;;46.80;20.00;;;;;;;2.87;82.89;98984.66;108815;1251;103055;-75
2023/01/24 09:12:56;;;;;;;42.50;19.50;;;;;;;2.96;82.98;98985.88;108625;1252;101175;-76
2023/01/24 09:15:25;;;;;;;27.90;15.20;;;;;;;3.06;82.90;98988.57;108688;1251;100030;-75
2023/01/24 09:17:53;;;;;;;23.50;14.10;;;;;;;3.15;82.71;98988.02;108799;1251;95930;-76
2023/01/24 09:20:21;;;;;;;21.20;12.80;;;;;;;3.21;82.53;98986.80;108950;1251;96085;-78
2023/01/24 09:22:50;;;;;;;20.30;13.00;;;;;;;3.24;82.44;98985.70;108917;1251;104001;-78
2023/01/24 09:25:18;;;;;;;25.10;13.50;;;;;;;3.28;82.36;98986.77;108616;1252;100875;-76
2023/01/24 09:27:54;;;;;;;34.50;16.30;;;;;;;3.34;82.24;98986.63;108764;1252;99953;-76
2023/01/24 09:30:23;;;;;;;33.40;16.00;;;;;;;3.43;82.33;98983.77;108745;1252;95699;-77
2023/01/24 09:32:51;;;;;;;33.00;16.30;;;;;;;3.53;82.29;98983.96;108796;1251;96039;-77
2023/01/24 09:35:19;;;;;;;39.20;17.30;;;;;;;3.65;82.20;98977.59;108770;1252;103683;-76
2023/01/24 09:37:47;;;;;;;33.10;14.70;;;;;;;3.78;82.13;98981.63;108753;1252;100018;-79
2023/01/24 09:40:35;;;;;;;19.90;11.50;;;;;;;4.00;82.18;98978.02;108760;1252;98901;-77
2023/01/24 09:43:22;;;;;;;20.30;10.80;;;;;;;4.32;82.15;98975.02;108693;1252;95630;-77
2023/01/24 09:46:05;;;;;;;16.70;10.20;;;;;;;4.66;81.99;98975.75;108785;1252;96019;-77
2023/01/24 09:48:36;;;;;;;17.40;10.20;;;;;;;4.98;81.58;98973.04;108774;1252;103182;-76
2023/01/24 09:51:11;;;;;;;16.30;10.30;;;;;;;5.22;80.96;98966.41;108797;1252;109849;-77
2023/01/24 09:53:48;;;;;;;18.10;11.10;;;;;;;5.42;80.55;98965.08;108582;1254;100172;-77
2023/01/24 09:56:35;;;;;;;12.70;8.60;;;;;;;5.63;80.24;98962.37;108684;1252;95641;-75
2023/01/24 09:59:24;;;;;;;17.10;10.00;;;;;;;5.74;79.62;98962.10;108769;1253;95978;-77
2023/01/24 10:01:53;;;;;;;14.60;8.20;;;;;;;5.81;79.16;98965.13;108757;1252;103868;-77
2023/01/24 10:04:36;;;;;;;13.50;8.20;;;;;;;5.87;79.02;98963.17;108622;1252;101319;-79
2023/01/24 10:07:27;;;;;;;14.50;8.60;;;;;;;6.08;78.87;98958.88;108756;1252;99897;-77
2023/01/24 10:10:16;;;;;;;14.50;8.90;;;;;;;6.47;78.45;98960.55;108499;1252;96519;-77
2023/01/24 10:12:55;;;;;;;17.30;8.80;;;;;;;6.72;77.74;98959.70;108824;1251;95989;-76
2023/01/24 10:15:41;;;;;;;13.80;7.70;;;;;;;6.72;77.37;98963.09;108920;1251;103716;-77
2023/01/24 10:18:09;;;;;;;14.30;8.60;;;;;;;6.69;76.90;98959.79;108904;1251;101742;-77
2023/01/24 10:20:46;;;;;;;17.50;9.70;;;;;;;6.64;76.63;98958.27;108860;1251;99911;-76
2023/01/24 10:23:21;;;;;;;13.10;8.70;;;;;;;6.63;76.42;98952.27;108847;1251;95581;-77
2023/01/24 10:25:56;;;;;;;14.40;8.70;;;;;;;6.65;76.23;98951.75;108937;1251;95919;-76
2023/01/24 10:28:34;;;;;;;17.60;10.00;;;;;;;6.67;76.31;98955.50;108580;1251;102851;-79
2023/01/24 10:31:12;;;;;;;15.80;10.10;;;;;;;6.69;76.14;98953.35;108868;1251;101297;-75
2023/01/24 10:33:47;;;;;;;15.70;8.60;;;;;;;6.72;75.89;98952.75;108353;1255;99299;-77
2023/01/24 10:36:23;;;;;;;13.60;9.30;;;;;;;6.82;75.79;98951.00;108350;1256;96010;-77
2023/01/24 10:38:51;;;;;;;14.80;9.90;;;;;;;7.01;75.88;98950.98;108432;1256;96113;-79
2023/01/24 10:41:21;;;;;;;13.50;8.00;;;;;;;7.17;75.40;98950.88;108367;1255;103489;-77
2023/01/24 10:43:56;;;;;;;15.10;8.10;;;;;;;7.26;75.11;98949.34;108381;1256;101344;-77
2023/01/24 10:46:43;;;;;;;16.40;8.80;;;;;;;7.26;74.63;98948.38;108549;1256;99913;-77
2023/01/24 10:49:20;;;;;;;18.60;9.90;;;;;;;7.13;74.12;98947.04;108538;1256;96302;-78
2023/01/24 10:52:15;;;;;;;12.50;8.70;;;;;;;7.01;74.10;98938.95;108552;1255;97125;-78
2023/01/24 10:54:54;;;;;;;14.00;8.70;;;;;;;6.86;73.93;98940.23;108543;1255;103480;-78
2023/01/24 10:57:45;;;;;;;14.10;8.90;;;;;;;6.73;73.94;98940.25;108582;1255;100810;-79
2023/01/24 11:00:29;;;;;;;14.50;9.60;;;;;;;6.55;73.60;98941.14;108516;1256;107510;-78
2023/01/24 11:03:04;;;;;;;14.50;9.10;;;;;;;6.37;73.78;98939.86;108314;1256;95726;-80
2023/01/24 11:05:41;;;;;;;15.20;9.40;;;;;;;6.27;73.86;98939.23;108703;1251;96030;-79
2023/01/24 11:08:19;;;;;;;15.90;9.30;;;;;;;6.20;74.02;98940.77;108899;1251;103260;-78
2023/01/24 11:10:51;;;;;;;15.50;8.70;;;;;;;6.10;73.98;98940.16;108840;1251;101698;-77
2023/01/24 11:13:22;;;;;;;20.30;10.20;;;;;;;6.04;73.91;98935.70;108847;1251;98415;-79
2023/01/24 11:15:54;;;;;;;15.50;8.70;;;;;;;6.02;74.07;98934.58;108819;1252;97011;-77
2023/01/24 11:18:27;;;;;;;18.00;10.80;;;;;;;6.02;74.06;98932.10;108812;1251;95925;-78
2023/01/24 11:21:10;;;;;;;19.40;10.70;;;;;;;6.08;74.12;98930.83;108870;1251;103580;-78
2023/01/24 11:23:39;;;;;;;19.50;10.80;;;;;;;6.23;74.14;98927.28;108907;1250;101474;-76
2023/01/24 11:26:21;;;;;;;14.10;9.30;;;;;;;6.41;74.00;98930.84;108840;1251;99808;-77
2023/01/24 11:28:58;;;;;;;19.70;10.30;;;;;;;6.51;73.83;98930.21;108597;1252;95681;-77
2023/01/24 11:31:45;;;;;;;20.60;10.90;;;;;;;6.47;73.32;98930.41;108876;1251;95942;-77
2023/01/24 11:34:40;;;;;;;20.30;10.90;;;;;;;6.32;72.99;98928.34;108847;1251;104043;-77
2023/01/24 11:37:27;;;;;;;19.20;11.50;;;;;;;6.18;73.09;98930.80;108331;1257;101707;-77
2023/01/24 11:40:34;;;;;;;25.80;13.10;;;;;;;6.04;73.18;98927.85;108247;1258;100080;-78
2023/01/24 11:43:08;;;;;;;25.60;13.40;;;;;;;5.87;73.12;98928.33;107730;1264;95742;-76
2023/01/24 11:45:50;;;;;;;21.30;12.60;;;;;;;5.72;73.15;98929.41;107940;1265;95765;-75
2023/01/24 11:48:36;;;;;;;21.10;12.40;;;;;;;5.55;73.21;98930.59;107932;1264;103736;-76
2023/01/24 11:51:23;;;;;;;24.30;11.90;;;;;;;5.33;73.27;98927.16;107948;1265;100179;-76
2023/01/24 11:53:57;;;;;;;21.60;13.10;;;;;;;5.14;73.70;98931.05;107935;1264;99342;-76
2023/01/24 11:56:27;;;;;;;22.00;12.40;;;;;;;5.06;73.81;98926.99;107939;1264;97155;-78
2023/01/24 11:59:16;;;;;;;21.00;11.60;;;;;;;4.97;73.89;98927.77;107946;1264;96290;-77
2023/01/24 12:02:21;;;;;;;19.90;11.40;;;;;;;4.90;74.03;98927.18;107944;1265;103519;-76
2023/01/24 12:05:16;;;;;;;22.20;13.00;;;;;;;4.86;74.34;98930.45;107929;1264;101390;-77
2023/01/24 12:07:54;;;;;;;29.30;15.00;;;;;;;4.84;74.33;98926.00;107878;1264;99805;-76
2023/01/24 12:10:34;;;;;;;28.00;15.20;;;;;;;4.80;74.43;98926.55;107903;1264;95724;-77
2023/01/24 12:13:44;;;;;;;27.10;14.50;;;;;;;4.77;74.45;98924.70;107937;1265;96055;-77